Time;durP1;ratioP1;P1;durP2;ratioP2;P2;SDS_P1;SDS_P2;PMS_P1;PMS_P2;Temp;Humidity;BMP_temperature;BMP_pressure;BME280_temperature;BME280_humidity;BME280_pressure;Samples;Min_cycle;Max_cycle;Signal;HPM_P1;HPM_P2
2023/06/25 00:01:39;;;;;;;11.30;8.73;;;;;;;23.64;50.85;101936.63;4989628;28;124197;-75
2023/06/25 00:04:06;;;;;;;10.93;8.38;;;;;;;23.60;50.66;101931.59;4989157;28;120033;-75
2023/06/25 00:06:33;;;;;;;13.05;8.15;;;;;;;23.56;50.80;101927.44;4989601;28;118625;-75
2023/06/25 00:09:01;;;;;;;11.50;8.93;;;;;;;23.52;50.87;101932.25;4970755;28;123692;-75
2023/06/25 00:11:28;;;;;;;11.70;8.40;;;;;;;23.49;50.78;101922.53;4989173;28;124116;-75
2023/06/25 00:13:55;;;;;;;13.07;8.75;;;;;;;23.44;51.19;101929.31;4988936;28;119087;-75
2023/06/25 00:16:25;;;;;;;13.27;8.52;;;;;;;23.38;51.09;101925.28;4971527;28;119552;-75
2023/06/25 00:18:52;;;;;;;13.40;9.80;;;;;;;23.33;51.22;101924.78;4988510;28;124028;-75
2023/06/25 00:21:19;;;;;;;13.85;10.02;;;;;;;23.30;51.40;101923.22;4971248;28;123690;-75
2023/06/25 00:23:46;;;;;;;15.75;10.70;;;;;;;23.29;51.37;101926.03;4988560;28;119989;-75
2023/06/25 00:26:13;;;;;;;16.95;10.23;;;;;;;23.26;51.46;101926.28;4971714;28;119187;-74
2023/06/25 00:28:40;;;;;;;15.32;10.18;;;;;;;23.19;51.28;101919.63;4969423;28;124063;-74
2023/06/25 00:31:07;;;;;;;14.60;9.93;;;;;;;23.12;51.07;101924.69;4968995;28;123639;-74
2023/06/25 00:33:34;;;;;;;15.00;10.75;;;;;;;23.05;51.42;101924.31;4970040;28;118443;-75
2023/06/25 00:36:06;;;;;;;14.20;10.07;;;;;;;23.02;51.60;101924.56;4971536;28;118342;-74
2023/06/25 00:38:37;;;;;;;13.93;10.70;;;;;;;23.00;51.70;101926.53;4986237;28;122030;-75
2023/06/25 00:41:10;;;;;;;13.25;9.25;;;;;;;22.98;51.54;101919.50;4970631;28;123171;-74
2023/06/25 00:43:41;;;;;;;14.50;9.82;;;;;;;22.95;51.49;101917.94;4966896;28;119543;-75
2023/06/25 00:46:12;;;;;;;13.63;9.65;;;;;;;22.92;51.49;101918.16;4954442;28;118686;-75
2023/06/25 00:48:45;;;;;;;17.92;9.38;;;;;;;22.88;51.56;101920.25;4955745;28;123288;-75
2023/06/25 00:51:14;;;;;;;13.52;9.27;;;;;;;22.85;51.54;101912.41;4971128;28;123695;-75
2023/06/25 00:53:42;;;;;;;15.20;10.10;;;;;;;22.84;51.98;101910.69;4987846;28;120080;-74
2023/06/25 00:56:11;;;;;;;12.68;9.82;;;;;;;22.83;51.94;101913.50;4988004;28;119277;-74
2023/06/25 00:58:40;;;;;;;13.60;9.50;;;;;;;22.81;51.71;101907.34;4966154;28;123575;-74
2023/06/25 01:01:17;;;;;;;14.07;9.43;;;;;;;22.79;51.97;101906.63;4991892;28;124056;-75
2023/06/25 01:03:54;;;;;;;15.10;8.90;;;;;;;22.76;51.83;101898.78;4953312;28;119046;-74
2023/06/25 01:06:29;;;;;;;13.82;9.45;;;;;;;22.71;51.86;101900.00;4981802;28;118947;-75
2023/06/25 01:08:59;;;;;;;13.90;9.40;;;;;;;22.68;51.88;101897.56;4985665;28;124384;-75
2023/06/25 01:11:28;;;;;;;13.95;9.43;;;;;;;22.65;52.04;101900.50;4970175;28;124893;-75
2023/06/25 01:13:56;;;;;;;12.43;9.98;;;;;;;22.62;51.95;101895.34;4969370;28;118661;-75
2023/06/25 01:16:23;;;;;;;13.45;10.10;;;;;;;22.59;52.23;101890.19;4988321;28;119064;-74
2023/06/25 01:18:51;;;;;;;14.40;10.02;;;;;;;22.53;52.41;101886.13;4969315;28;123906;-74
2023/06/25 01:21:31;;;;;;;13.95;9.18;;;;;;;22.51;52.18;101892.66;4987336;28;124237;-75
2023/06/25 01:23:59;;;;;;;15.60;9.85;;;;;;;22.47;52.02;101892.03;4987089;28;120519;-74
2023/06/25 01:26:26;;;;;;;14.68;9.40;;;;;;;22.43;52.24;101879.72;4988734;28;120587;-75
2023/06/25 01:28:55;;;;;;;13.38;9.10;;;;;;;22.41;52.24;101880.84;4987832;28;123882;-75
2023/06/25 01:31:30;;;;;;;14.60;9.23;;;;;;;22.38;52.77;101886.47;4971190;28;124747;-75
2023/06/25 01:33:58;;;;;;;13.15;9.05;;;;;;;22.34;52.36;101875.06;4954016;28;118395;-75
2023/06/25 01:36:26;;;;;;;10.15;7.97;;;;;;;22.32;52.51;101869.78;4985645;28;119506;-75
2023/06/25 01:38:53;;;;;;;13.27;8.90;;;;;;;22.30;52.60;101869.06;4983677;28;123958;-74
2023/06/25 01:41:20;;;;;;;11.93;8.60;;;;;;;22.29;52.68;101867.31;4987870;28;124204;-75
2023/06/25 01:43:47;;;;;;;15.13;9.27;;;;;;;22.26;52.71;101867.56;4942989;28;119584;-75
2023/06/25 01:46:14;;;;;;;13.25;8.88;;;;;;;22.22;52.85;101854.41;4967442;28;118431;-74
2023/06/25 01:48:42;;;;;;;10.43;8.15;;;;;;;22.20;53.04;101856.38;4973615;28;123281;-75
2023/06/25 01:51:09;;;;;;;14.15;8.80;;;;;;;22.17;53.02;101862.88;4986406;28;124649;-75
2023/06/25 01:53:36;;;;;;;12.20;9.02;;;;;;;22.12;52.97;101859.66;4985502;28;118143;-75
2023/06/25 01:56:03;;;;;;;12.23;8.82;;;;;;;22.06;52.84;101852.06;4987689;28;118664;-73
2023/06/25 01:58:30;;;;;;;11.98;8.85;;;;;;;22.00;52.91;101860.59;4969583;28;123407;-75
2023/06/25 02:00:57;;;;;;;12.73;8.98;;;;;;;21.94;53.17;101854.72;4953634;28;123538;-74
2023/06/25 02:03:24;;;;;;;12.52;8.90;;;;;;;21.91;53.35;101860.34;4985798;28;118844;-74
2023/06/25 02:05:52;;;;;;;12.63;8.40;;;;;;;21.87;53.26;101850.78;4954344;28;117168;-75
2023/06/25 02:08:19;;;;;;;10.98;8.82;;;;;;;21.84;53.27;101842.91;4969189;28;124097;-75
2023/06/25 02:10:46;;;;;;;13.90;8.88;;;;;;;21.83;53.26;101851.13;4987222;28;123825;-75
2023/06/25 02:13:14;;;;;;;11.07;8.75;;;;;;;21.78;53.43;101846.94;4969832;28;119546;-74
2023/06/25 02:15:42;;;;;;;14.23;9.90;;;;;;;21.75;53.38;101840.91;4969535;28;119516;-74
2023/06/25 02:18:14;;;;;;;12.57;9.48;;;;;;;21.73;53.54;101842.88;4970491;28;122570;-74
2023/06/25 02:20:41;;;;;;;12.25;9.50;;;;;;;21.71;53.68;101834.03;4968820;28;122950;-75
2023/06/25 02:23:08;;;;;;;14.35;9.30;;;;;;;21.70;53.65;101826.91;4969408;28;118739;-75
2023/06/25 02:25:35;;;;;;;16.05;9.57;;;;;;;21.68;53.99;101831.56;4953010;28;118352;-75
2023/06/25 02:28:03;;;;;;;14.07;9.23;;;;;;;21.66;53.92;101830.84;4987215;28;124095;-74
2023/06/25 02:30:30;;;;;;;12.25;8.80;;;;;;;21.63;53.98;101820.31;5002806;28;123760;-74
2023/06/25 02:32:57;;;;;;;12.18;9.05;;;;;;;21.62;53.93;101823.97;4977191;28;118714;-75
2023/06/25 02:35:24;;;;;;;12.05;8.07;;;;;;;21.60;53.85;101815.13;4968151;28;118197;-74
2023/06/25 02:37:52;;;;;;;13.63;8.65;;;;;;;21.56;53.82;101812.66;4986231;28;124163;-75
2023/06/25 02:40:21;;;;;;;13.90;9.25;;;;;;;21.54;54.12;101811.91;4969715;28;122891;-75
2023/06/25 02:42:48;;;;;;;12.10;9.00;;;;;;;21.54;54.57;101811.91;4970450;28;118380;-75
2023/06/25 02:45:16;;;;;;;15.40;9.18;;;;;;;21.54;54.35;101811.91;4968783;28;118797;-75
2023/06/25 02:47:43;;;;;;;10.73;8.65;;;;;;;21.52;54.22;101808.47;4970194;28;123941;-75
2023/06/25 02:50:11;;;;;;;13.80;9.38;;;;;;;21.50;54.15;101810.44;4971069;28;123372;-74
2023/06/25 02:52:40;;;;;;;13.05;8.60;;;;;;;21.47;54.34;101807.97;4969431;28;119155;-75
2023/06/25 02:55:07;;;;;;;12.75;8.90;;;;;;;21.45;54.36;101796.44;4952416;28;117821;-74
2023/06/25 02:57:34;;;;;;;13.38;9.27;;;;;;;21.44;54.46;101810.91;4969022;28;123187;-74
2023/06/25 03:00:04;;;;;;;13.15;9.30;;;;;;;21.44;54.68;101810.91;4968179;28;122583;-74
2023/06/25 03:02:33;;;;;;;12.43;9.80;;;;;;;21.42;54.82;101810.13;4967373;28;119535;-74
2023/06/25 03:05:00;;;;;;;17.23;10.05;;;;;;;21.42;54.94;101810.13;4973386;28;119147;-75
2023/06/25 03:07:27;;;;;;;11.98;8.77;;;;;;;21.39;54.79;101818.44;4987870;28;124770;-74
2023/06/25 03:09:56;;;;;;;11.90;9.02;;;;;;;21.35;54.95;101801.66;4980427;28;122952;-74
2023/06/25 03:12:25;;;;;;;11.93;8.70;;;;;;;21.32;54.92;101806.41;4957903;28;97978;-74
2023/06/25 03:14:53;;;;;;;12.35;8.98;;;;;;;21.32;54.94;101803.72;4950870;28;118995;-75
2023/06/25 03:17:20;;;;;;;12.90;8.85;;;;;;;21.31;55.09;101812.78;4985513;28;124087;-74
2023/06/25 03:19:47;;;;;;;14.40;9.45;;;;;;;21.29;54.80;101809.34;4967920;28;122617;-74
2023/06/25 03:22:14;;;;;;;12.52;8.73;;;;;;;21.27;55.08;101803.22;4968568;28;117439;-74
2023/06/25 03:24:43;;;;;;;12.95;9.02;;;;;;;21.23;55.20;101804.41;4967808;28;118219;-74
2023/06/25 03:27:11;;;;;;;11.98;9.25;;;;;;;21.20;55.12;101803.66;4968834;28;123637;-75
2023/06/25 03:29:38;;;;;;;13.25;8.98;;;;;;;21.22;55.22;101800.00;4968422;28;123972;-75
2023/06/25 03:32:06;;;;;;;11.55;8.90;;;;;;;21.20;55.18;101803.66;4982284;28;118607;-75
2023/06/25 03:34:33;;;;;;;12.05;8.77;;;;;;;21.20;55.10;101797.41;4962765;28;118167;-74
2023/06/25 03:37:00;;;;;;;13.98;8.75;;;;;;;21.19;55.10;101801.94;4971719;28;123331;-75
2023/06/25 03:39:28;;;;;;;13.60;9.43;;;;;;;21.19;55.13;101796.56;4971233;28;123252;-74
2023/06/25 03:41:56;;;;;;;13.05;8.77;;;;;;;21.18;55.18;101800.22;4972346;28;118861;-74
2023/06/25 03:44:24;;;;;;;11.95;9.43;;;;;;;21.16;55.33;101796.78;4971684;28;118532;-74
2023/06/25 03:46:52;;;;;;;11.55;8.32;;;;;;;21.15;55.41;101795.06;4971981;28;124037;-74
2023/06/25 03:49:21;;;;;;;13.15;9.52;;;;;;;21.13;55.36;101788.91;4972724;28;123076;-75
2023/06/25 03:51:48;;;;;;;14.18;9.73;;;;;;;21.11;55.44;101793.56;4981060;28;119282;-74
2023/06/25 03:54:15;;;;;;;11.77;9.00;;;;;;;21.08;55.40;101793.81;4989001;28;120431;-75
2023/06/25 03:56:42;;;;;;;14.02;9.32;;;;;;;21.04;55.59;101789.63;4972369;28;123997;-74
2023/06/25 03:59:09;;;;;;;11.27;8.65;;;;;;;21.02;55.70;101783.50;4970938;28;122757;-75
2023/06/25 04:01:37;;;;;;;14.53;9.60;;;;;;;21.03;55.81;101790.59;4971060;28;118520;-75
2023/06/25 04:04:04;;;;;;;12.70;9.77;;;;;;;21.03;55.92;101785.19;4971686;28;118300;-74
2023/06/25 04:06:31;;;;;;;12.70;9.52;;;;;;;21.02;55.94;101788.88;4970744;28;123062;-75
2023/06/25 04:08:59;;;;;;;12.95;9.60;;;;;;;21.03;55.93;101784.34;4970361;28;123606;-74
2023/06/25 04:11:26;;;;;;;14.63;9.85;;;;;;;21.03;56.08;101785.19;4988939;28;119834;-75
2023/06/25 04:13:54;;;;;;;14.75;9.98;;;;;;;21.04;56.03;101792.31;4953479;28;120373;-74
2023/06/25 04:16:22;;;;;;;15.55;9.88;;;;;;;21.06;56.27;101792.19;4970472;28;122313;-74
2023/06/25 04:18:50;;;;;;;15.98;9.63;;;;;;;21.07;56.39;101786.69;4970369;28;123519;-75
2023/06/25 04:21:17;;;;;;;15.75;10.85;;;;;;;21.09;56.38;101779.34;4972074;28;120185;-75
2023/06/25 04:23:45;;;;;;;17.23;10.43;;;;;;;21.12;56.40;101789.91;4985092;28;118061;-74
2023/06/25 04:26:12;;;;;;;19.15;10.88;;;;;;;21.14;56.45;101793.34;4975640;28;123733;-75
2023/06/25 04:28:41;;;;;;;18.92;10.85;;;;;;;21.17;56.41;101787.75;4983046;28;123639;-74
2023/06/25 04:31:08;;;;;;;15.88;10.93;;;;;;;21.20;56.64;101792.88;4970237;28;118889;-75
2023/06/25 04:33:41;;;;;;;16.25;11.63;;;;;;;21.26;56.54;101779.94;4969518;28;118321;-74
2023/06/25 04:36:10;;;;;;;12.90;10.73;;;;;;;21.29;56.49;101779.72;4969902;28;123376;-74
2023/06/25 04:38:38;;;;;;;15.63;10.80;;;;;;;21.33;56.65;101783.88;4953574;28;124124;-74
2023/06/25 04:41:05;;;;;;;18.42;10.90;;;;;;;21.37;56.53;101786.22;4986179;28;120052;-75
2023/06/25 04:43:32;;;;;;;18.98;11.32;;;;;;;21.41;56.66;101789.53;4970093;28;119326;-75
2023/06/25 04:46:01;;;;;;;15.38;10.45;;;;;;;21.46;56.69;101787.41;4970592;28;123225;-74
2023/06/25 04:48:28;;;;;;;18.63;10.82;;;;;;;21.51;56.82;101784.34;4969849;28;123212;-74
2023/06/25 04:50:55;;;;;;;16.42;10.35;;;;;;;21.60;57.09;101777.38;4970211;28;118285;-75
2023/06/25 04:53:22;;;;;;;18.30;10.90;;;;;;;21.69;57.18;101782.06;4988328;28;120507;-75
2023/06/25 04:55:50;;;;;;;19.60;11.35;;;;;;;21.83;57.41;101784.56;4970390;28;123903;-74
2023/06/25 04:58:17;;;;;;;16.85;10.27;;;;;;;21.97;57.30;101786.19;4988281;28;124003;-75
2023/06/25 05:00:44;;;;;;;17.98;11.57;;;;;;;22.11;57.27;101782.38;4988137;28;119209;-75
2023/06/25 05:03:11;;;;;;;12.57;9.45;;;;;;;22.24;57.14;101782.28;4988077;28;119519;-75
2023/06/25 05:05:38;;;;;;;13.77;10.50;;;;;;;22.38;57.08;101783.88;4953221;28;124293;-74
2023/06/25 05:08:05;;;;;;;14.27;10.57;;;;;;;22.52;56.99;101787.19;4970457;28;124976;-74
2023/06/25 05:10:33;;;;;;;15.88;10.77;;;;;;;22.67;56.77;101779.69;4969944;28;118356;-75
2023/06/25 05:13:00;;;;;;;15.25;11.00;;;;;;;22.79;56.10;101776.97;4988478;28;119216;-74
2023/06/25 05:15:27;;;;;;;16.02;11.27;;;;;;;22.90;56.20;101780.50;4969344;28;124104;-75
2023/06/25 05:17:54;;;;;;;17.67;11.27;;;;;;;23.01;56.13;101782.31;4988132;28;123771;-75
2023/06/25 05:20:21;;;;;;;15.18;10.57;;;;;;;23.12;55.98;101785.03;4988206;28;119709;-74
2023/06/25 05:22:48;;;;;;;16.35;12.02;;;;;;;23.24;55.53;101782.28;4942090;28;118098;-74
2023/06/25 05:25:15;;;;;;;17.65;11.60;;;;;;;23.31;55.39;101772.66;4983038;28;124249;-74
2023/06/25 05:27:43;;;;;;;17.02;11.73;;;;;;;23.38;55.32;101779.28;4988720;28;124446;-74
2023/06/25 05:30:10;;;;;;;19.38;12.25;;;;;;;23.43;55.04;101782.47;4987100;28;120557;-74
2023/06/25 05:32:37;;;;;;;17.05;11.88;;;;;;;23.48;54.86;101780.19;4970047;28;119045;-74
2023/06/25 05:35:05;;;;;;;18.70;12.63;;;;;;;23.56;54.95;101776.00;4988293;28;123969;-74
2023/06/25 05:37:32;;;;;;;16.75;11.85;;;;;;;23.66;54.76;101779.63;4989257;28;123749;-74
2023/06/25 05:39:59;;;;;;;18.00;12.10;;;;;;;23.74;54.76;101774.41;4988323;28;118652;-74
2023/06/25 05:42:27;;;;;;;16.73;12.93;;;;;;;23.81;54.54;101781.06;4988071;28;119457;-73
2023/06/25 05:44:54;;;;;;;18.92;12.85;;;;;;;23.88;53.94;101776.81;4969397;28;123937;-74
2023/06/25 05:47:21;;;;;;;15.63;11.77;;;;;;;23.94;54.00;101774.56;4975845;28;124455;-74
2023/06/25 05:49:48;;;;;;;16.77;12.75;;;;;;;24.00;53.64;101768.63;4987148;28;119282;-74
2023/06/25 05:52:15;;;;;;;17.60;12.65;;;;;;;24.08;53.69;101779.63;4988067;28;120006;-74
2023/06/25 05:54:42;;;;;;;17.40;13.60;;;;;;;24.17;53.83;101770.72;4987655;28;124620;-73
2023/06/25 05:57:10;;;;;;;16.92;13.63;;;;;;;24.27;53.68;101766.19;4971929;28;123807;-74
2023/06/25 05:59:37;;;;;;;18.27;13.68;;;;;;;24.36;53.61;101761.81;4972514;28;120029;-73
2023/06/25 06:02:07;;;;;;;20.25;14.70;;;;;;;24.45;53.52;101762.84;4999202;28;119261;-74
2023/06/25 06:04:35;;;;;;;20.30;13.65;;;;;;;24.52;53.28;101768.59;4979745;28;124459;-74
2023/06/25 06:07:02;;;;;;;18.63;14.15;;;;;;;24.60;52.99;101772.31;4988680;28;124768;-75
2023/06/25 06:09:29;;;;;;;17.15;13.23;;;;;;;24.70;52.46;101761.50;4984869;28;119434;-74
2023/06/25 06:11:56;;;;;;;18.52;12.65;;;;;;;24.80;52.40;101761.53;4969065;28;119900;-74
2023/06/25 06:14:23;;;;;;;18.73;13.25;;;;;;;24.91;52.34;101764.09;4976972;28;123991;-75
2023/06/25 06:16:50;;;;;;;18.55;12.15;;;;;;;25.02;52.06;101761.28;4965230;28;123954;-74
2023/06/25 06:19:18;;;;;;;18.80;13.00;;;;;;;25.10;51.57;101762.41;4980455;28;120641;-74
2023/06/25 06:21:45;;;;;;;18.38;12.32;;;;;;;25.17;51.32;101759.00;4985613;28;119921;-74
2023/06/25 06:24:13;;;;;;;16.98;11.63;;;;;;;25.27;51.08;101763.59;4970132;28;124365;-74
2023/06/25 06:26:40;;;;;;;14.73;11.93;;;;;;;25.35;50.69;101761.88;4968364;28;124559;-74
2023/06/25 06:29:07;;;;;;;17.20;11.23;;;;;;;25.42;50.88;101757.59;4986712;28;119274;-74
2023/06/25 06:31:34;;;;;;;14.95;11.40;;;;;;;25.55;50.91;101756.44;4967122;28;119015;-74
2023/06/25 06:34:01;;;;;;;17.05;11.68;;;;;;;25.67;51.18;101755.25;4966753;28;123089;-74
2023/06/25 06:36:28;;;;;;;17.25;11.85;;;;;;;25.80;50.61;101761.22;4980749;28;123520;-76
2023/06/25 06:38:55;;;;;;;16.30;11.60;;;;;;;25.97;50.07;101761.50;4982848;28;121497;-73
2023/06/25 06:41:23;;;;;;;15.88;12.32;;;;;;;26.10;50.19;101751.16;4984450;28;119258;-73
2023/06/25 06:43:50;;;;;;;17.75;12.50;;;;;;;26.26;49.68;101745.13;4980208;28;123849;-73
2023/06/25 06:46:17;;;;;;;16.25;11.68;;;;;;;26.43;49.35;101746.19;4985257;28;124103;-74
2023/06/25 06:48:44;;;;;;;17.20;11.63;;;;;;;26.58;48.93;101749.25;4983681;28;119168;-73
2023/06/25 06:51:11;;;;;;;14.68;11.30;;;;;;;26.72;48.64;101739.75;4983315;28;119170;-73
2023/06/25 06:53:38;;;;;;;14.73;11.23;;;;;;;26.88;48.25;101739.91;4982068;28;124157;-73
2023/06/25 06:56:06;;;;;;;16.13;11.05;;;;;;;27.05;48.49;101742.78;4997165;28;124516;-74
2023/06/25 06:58:33;;;;;;;15.30;10.63;;;;;;;27.21;47.79;101744.81;4979998;28;119809;-74
2023/06/25 07:01:00;;;;;;;14.60;11.10;;;;;;;27.36;47.15;101749.56;4989125;28;119714;-74
2023/06/25 07:03:27;;;;;;;14.63;10.65;;;;;;;27.53;46.28;101750.53;4971998;28;123802;-74
2023/06/25 07:05:54;;;;;;;14.98;10.68;;;;;;;27.67;46.28;101746.41;4983455;28;123496;-74
2023/06/25 07:08:21;;;;;;;12.48;9.77;;;;;;;27.84;46.37;101743.78;4965616;28;119500;-74
2023/06/25 07:10:49;;;;;;;16.17;10.60;;;;;;;28.00;46.45;101735.75;4983603;28;119754;-73
2023/06/25 07:13:16;;;;;;;15.90;10.65;;;;;;;28.20;45.66;101740.94;4977269;28;124041;-74
2023/06/25 07:15:43;;;;;;;15.82;10.70;;;;;;;28.37;45.30;101742.72;4984196;28;124114;-74
2023/06/25 07:18:10;;;;;;;18.30;10.68;;;;;;;28.54;45.43;101739.06;4980171;28;120193;-74
2023/06/25 07:20:37;;;;;;;15.60;9.65;;;;;;;28.68;45.32;101744.88;4985508;28;118535;-74
2023/06/25 07:23:04;;;;;;;12.48;9.63;;;;;;;28.84;44.62;101744.94;4985996;28;123723;-74
2023/06/25 07:25:31;;;;;;;14.10;10.07;;;;;;;28.99;44.85;101747.00;4967763;28;123980;-74
2023/06/25 07:27:59;;;;;;;13.98;9.93;;;;;;;29.14;44.96;101748.09;4986561;28;119178;-74
2023/06/25 07:30:26;;;;;;;12.35;10.20;;;;;;;29.30;44.77;101748.06;4985757;28;119758;-74
2023/06/25 07:32:53;;;;;;;11.60;9.05;;;;;;;29.43;44.18;101744.81;4968404;28;123117;-74
2023/06/25 07:35:21;;;;;;;14.00;9.38;;;;;;;29.59;43.89;101743.97;4985786;28;123792;-74
2023/06/25 07:37:49;;;;;;;12.52;9.23;;;;;;;29.70;42.53;101734.56;4985979;28;119343;-74
2023/06/25 07:40:16;;;;;;;12.60;9.15;;;;;;;29.81;42.79;101741.56;4986196;28;118813;-74
2023/06/25 07:42:43;;;;;;;12.15;8.52;;;;;;;29.93;43.10;101736.56;4985841;28;124580;-74
2023/06/25 07:45:11;;;;;;;11.77;8.80;;;;;;;30.05;41.94;101736.03;4994991;28;124023;-74
2023/06/25 07:47:38;;;;;;;13.43;9.02;;;;;;;30.13;41.21;101735.16;4971201;28;119229;-74
2023/06/25 07:50:06;;;;;;;14.95;9.32;;;;;;;30.18;40.58;101731.91;4968979;28;119436;-74
2023/06/25 07:52:33;;;;;;;13.32;8.60;;;;;;;30.23;40.32;101718.53;4985550;28;124615;-74
2023/06/25 07:55:00;;;;;;;13.82;9.27;;;;;;;30.28;39.95;101727.06;4968394;28;124630;-74
2023/06/25 07:57:27;;;;;;;12.02;8.55;;;;;;;30.31;40.48;101729.44;4985693;28;119339;-74
2023/06/25 07:59:54;;;;;;;11.68;8.27;;;;;;;30.40;40.76;101725.69;4986092;28;120103;-74
2023/06/25 08:02:22;;;;;;;11.90;8.70;;;;;;;30.54;41.32;101720.47;4968071;28;124060;-74
2023/06/25 08:04:49;;;;;;;12.40;8.90;;;;;;;30.65;40.26;101722.81;4985576;28;124471;-74
2023/06/25 08:07:17;;;;;;;12.50;8.43;;;;;;;30.76;39.86;101719.66;4985843;28;118460;-74
2023/06/25 08:09:45;;;;;;;10.48;8.35;;;;;;;30.85;39.87;101718.56;4986027;28;119342;-73
2023/06/25 08:12:14;;;;;;;10.65;8.32;;;;;;;30.97;39.88;101709.97;4972618;28;124346;-74
2023/06/25 08:14:43;;;;;;;11.45;8.27;;;;;;;31.09;39.94;101719.44;4997052;28;123276;-74
2023/06/25 08:17:10;;;;;;;10.48;7.88;;;;;;;31.23;39.82;101720.50;4989212;28;118977;-74
2023/06/25 08:19:37;;;;;;;11.35;8.30;;;;;;;31.34;38.75;101724.69;4971259;28;118231;-74
2023/06/25 08:22:04;;;;;;;10.68;7.95;;;;;;;31.43;38.94;101715.38;4969212;28;123968;-74
2023/06/25 08:24:31;;;;;;;11.05;7.22;;;;;;;31.49;38.36;101717.41;4982496;28;123190;-74
2023/06/25 08:26:58;;;;;;;8.93;6.70;;;;;;;31.53;37.72;101710.53;4988765;28;119558;-74
2023/06/25 08:29:26;;;;;;;7.85;6.20;;;;;;;31.52;37.75;101711.56;4988748;28;118949;-73
2023/06/25 08:31:53;;;;;;;8.30;5.88;;;;;;;31.55;37.13;101708.47;4987694;28;124076;-74
2023/06/25 08:34:20;;;;;;;8.10;6.22;;;;;;;31.60;37.82;101711.47;4988478;28;123027;-74
2023/06/25 08:36:47;;;;;;;8.00;5.70;;;;;;;31.68;37.07;101706.94;4987076;28;119558;-74
2023/06/25 08:39:15;;;;;;;9.60;6.60;;;;;;;31.72;37.38;101702.78;4969310;28;119314;-74
2023/06/25 08:41:42;;;;;;;9.00;6.03;;;;;;;31.75;37.32;101700.53;4988312;28;124756;-74
2023/06/25 08:44:09;;;;;;;8.57;5.88;;;;;;;31.81;37.08;101701.66;4988151;28;125302;-74
2023/06/25 08:46:38;;;;;;;10.35;6.05;;;;;;;31.87;37.01;101700.88;4988120;28;120008;-74
2023/06/25 08:49:05;;;;;;;7.72;5.65;;;;;;;31.94;37.11;101696.34;4985719;28;119674;-74
2023/06/25 08:51:35;;;;;;;8.23;5.60;;;;;;;32.03;36.59;101685.34;4996371;28;124085;-75
2023/06/25 08:54:03;;;;;;;9.40;6.47;;;;;;;32.11;37.06;101687.97;4991561;28;123871;-74
2023/06/25 08:56:30;;;;;;;7.38;5.45;;;;;;;32.18;36.91;101691.66;4970363;28;119249;-74
2023/06/25 08:58:57;;;;;;;7.93;5.50;;;;;;;32.23;36.08;101688.31;4968817;28;118299;-74
2023/06/25 09:01:25;;;;;;;9.60;5.55;;;;;;;32.27;36.94;101689.63;4987940;28;125689;-74
2023/06/25 09:03:53;;;;;;;7.55;5.53;;;;;;;32.36;37.12;101694.84;4970266;28;123906;-74
2023/06/25 09:06:21;;;;;;;8.90;5.82;;;;;;;32.50;37.65;101695.00;4986554;28;119113;-74
2023/06/25 09:08:48;;;;;;;7.32;5.50;;;;;;;32.59;36.53;101689.22;4987617;28;118927;-74
2023/06/25 09:11:16;;;;;;;5.85;4.55;;;;;;;32.69;37.04;101677.06;4986919;28;124513;-74
2023/06/25 09:13:43;;;;;;;6.03;4.90;;;;;;;32.80;37.05;101689.44;4987402;28;123428;-75
2023/06/25 09:16:11;;;;;;;6.68;4.55;;;;;;;32.86;36.39;101688.63;4987987;28;119344;-74
2023/06/25 09:18:38;;;;;;;7.07;4.53;;;;;;;32.91;36.40;101686.16;4988021;28;118277;-74
2023/06/25 09:21:08;;;;;;;6.50;4.38;;;;;;;32.99;36.36;101677.78;4987172;28;123841;-74
2023/06/25 09:23:38;;;;;;;5.45;4.32;;;;;;;33.06;36.28;101678.69;4969599;28;124378;-74
2023/06/25 09:26:09;;;;;;;7.60;4.07;;;;;;;33.11;36.07;101676.22;4969485;28;117771;-74
2023/06/25 09:28:49;;;;;;;5.07;4.22;;;;;;;33.19;35.58;101682.63;4962552;28;118771;-74
2023/06/25 09:31:16;;;;;;;5.35;3.90;;;;;;;33.24;35.41;101677.38;4991631;28;123755;-74
2023/06/25 09:33:51;;;;;;;5.55;4.22;;;;;;;33.28;35.18;101675.94;4979084;28;122969;-74
2023/06/25 09:36:19;;;;;;;5.65;4.30;;;;;;;33.30;35.46;101673.84;4972857;28;119559;-74
2023/06/25 09:39:05;;;;;;;7.32;4.55;;;;;;;33.32;34.89;101671.72;4985575;28;119627;-74
2023/06/25 09:41:34;;;;;;;5.55;4.03;;;;;;;33.36;34.78;101675.78;4968933;28;123148;-74
2023/06/25 09:44:06;;;;;;;5.60;4.60;;;;;;;33.38;35.10;101665.47;4972859;28;122679;-74
2023/06/25 09:46:39;;;;;;;5.63;4.30;;;;;;;33.39;34.76;101667.13;4972997;28;119069;-74
2023/06/25 09:49:07;;;;;;;5.10;4.22;;;;;;;33.37;34.56;101663.75;4984635;28;118607;-74
2023/06/25 09:51:41;;;;;;;6.45;4.80;;;;;;;33.39;35.15;101667.13;4987635;28;123838;-74
2023/06/25 09:54:10;;;;;;;6.25;5.05;;;;;;;33.41;35.08;101659.53;4986068;28;124622;-74
2023/06/25 09:56:41;;;;;;;6.57;4.63;;;;;;;33.47;35.00;101647.75;4969669;28;118479;-74
2023/06/25 09:59:08;;;;;;;6.70;5.00;;;;;;;33.52;34.69;101656.25;4987548;28;117956;-74
2023/06/25 10:01:36;;;;;;;7.50;4.57;;;;;;;33.56;34.81;101657.53;4986615;28;124182;-74
2023/06/25 10:04:04;;;;;;;6.97;4.70;;;;;;;33.63;34.63;101657.59;4986438;28;124328;-74
2023/06/25 10:06:33;;;;;;;5.15;4.25;;;;;;;33.68;34.45;101648.75;4985069;28;120041;-74
2023/06/25 10:09:02;;;;;;;6.18;4.20;;;;;;;33.70;33.88;101646.66;4974374;28;119056;-74
2023/06/25 10:11:29;;;;;;;5.65;4.38;;;;;;;33.70;34.06;101649.41;4968662;28;124401;-75
2023/06/25 10:13:58;;;;;;;5.38;4.32;;;;;;;33.72;34.15;101644.56;4968062;28;123128;-74
2023/06/25 10:16:31;;;;;;;5.78;4.28;;;;;;;33.75;34.14;101644.16;4987348;28;119985;-74
2023/06/25 10:19:06;;;;;;;5.68;3.78;;;;;;;33.79;34.32;101645.44;4982185;28;119120;-74
2023/06/25 10:21:33;;;;;;;5.28;4.25;;;;;;;33.81;34.28;101643.31;4985922;28;123734;-75
2023/06/25 10:24:02;;;;;;;5.10;3.90;;;;;;;33.89;34.64;101639.59;4985570;28;123772;-74
2023/06/25 10:26:33;;;;;;;4.95;4.00;;;;;;;33.96;34.08;101628.59;4982625;28;119956;-74
2023/06/25 10:29:05;;;;;;;4.75;4.30;;;;;;;34.00;33.32;101627.13;4981406;28;119820;-74
2023/06/25 10:31:44;;;;;;;4.75;3.83;;;;;;;34.02;33.59;101625.00;4986239;28;123871;-74
2023/06/25 10:34:13;;;;;;;4.38;3.97;;;;;;;34.08;33.78;101626.97;4981464;28;124177;-74
2023/06/25 10:36:50;;;;;;;6.25;4.10;;;;;;;34.13;33.58;101629.91;4968464;28;119784;-74
2023/06/25 10:39:17;;;;;;;5.00;3.72;;;;;;;34.21;33.68;101621.53;4979483;28;119625;-74
2023/06/25 10:41:47;;;;;;;5.18;3.60;;;;;;;34.28;33.23;101616.03;4977546;28;124565;-74
2023/06/25 10:44:14;;;;;;;5.80;4.00;;;;;;;34.31;33.08;101613.72;4974570;28;122922;-74
2023/06/25 10:46:41;;;;;;;4.90;4.03;;;;;;;34.33;32.82;101622.59;4985255;28;119841;-75
2023/06/25 10:49:13;;;;;;;4.10;3.67;;;;;;;34.38;32.80;101610.13;4976476;28;117823;-75
2023/06/25 10:51:40;;;;;;;4.43;3.70;;;;;;;34.45;32.36;101611.00;4999846;28;122985;-79
2023/06/25 10:54:09;;;;;;;4.45;4.05;;;;;;;34.51;32.04;101604.69;4975516;28;124195;-75
2023/06/25 10:56:36;;;;;;;5.03;4.30;;;;;;;34.57;31.54;101603.00;4967340;28;119088;-75
2023/06/25 10:59:03;;;;;;;4.57;3.80;;;;;;;34.60;31.47;101603.38;4965132;28;118709;-77
2023/06/25 11:01:34;;;;;;;4.15;3.75;;;;;;;34.64;31.78;101612.94;4985721;28;123837;-77
2023/06/25 11:04:12;;;;;;;4.85;3.90;;;;;;;34.65;31.70;101600.84;4968516;28;123669;-75
2023/06/25 11:06:40;;;;;;;4.32;3.92;;;;;;;34.69;32.22;101596.66;4987001;28;119897;-75
2023/06/25 11:09:07;;;;;;;6.35;3.97;;;;;;;34.79;31.82;101589.88;4986997;28;118993;-76
2023/06/25 11:11:36;;;;;;;4.25;3.78;;;;;;;34.85;31.82;101600.06;4977701;28;124016;-77
2023/06/25 11:14:03;;;;;;;5.72;4.22;;;;;;;34.87;31.46;101592.44;4979689;28;121949;-77